createdAt,value
2023-03-05T00:04:14.656Z,96475.94
2023-03-05T00:09:17.845Z,96478.38
2023-03-05T00:14:20.682Z,96472.13
2023-03-05T00:19:24.908Z,96480.84
2023-03-05T00:24:27.733Z,96479.22
2023-03-05T00:29:31.820Z,96484.94
2023-03-05T00:34:36.326Z,96486.81
2023-03-05T00:39:39.248Z,96484.94
2023-03-05T00:44:42.120Z,96477.31
2023-03-05T00:49:46.524Z,96478.94
2023-03-05T00:54:49.363Z,96472.72
2023-03-05T00:59:52.255Z,96477.31
2023-03-05T01:04:56.448Z,96475.97
2023-03-05T01:09:59.269Z,96473.53
2023-03-05T01:15:02.183Z,96467.56
2023-03-05T01:20:07.694Z,96469.19
2023-03-05T01:25:10.905Z,96461.63
2023-03-05T01:30:15.604Z,96458.91
2023-03-05T01:35:21.440Z,96449.94
2023-03-05T01:40:27.075Z,96446.72
2023-03-05T01:45:32.602Z,96441.56
2023-03-05T01:50:36.858Z,96442.91
2023-03-05T01:55:39.706Z,96438.03
2023-03-05T02:00:45.770Z,96431.81
2023-03-05T02:05:50.115Z,96427.72
2023-03-05T02:10:55.569Z,96417.66
2023-03-05T02:16:00.208Z,96420.97
2023-03-05T02:21:06.233Z,96425.56
2023-03-05T02:26:11.237Z,96418.00
2023-03-05T02:31:15.780Z,96412.84
2023-03-05T02:36:20.005Z,96413.94
2023-03-05T02:41:22.868Z,96415.56
2023-03-05T02:46:25.727Z,96419.59
2023-03-05T02:51:30.029Z,96418.28
2023-03-05T02:56:32.970Z,96408.50
2023-03-05T03:01:35.896Z,96405.22
2023-03-05T03:06:40.110Z,96404.19
2023-03-05T03:11:42.922Z,96397.09
2023-03-05T03:16:45.887Z,96397.38
2023-03-05T03:21:50.290Z,96400.06
2023-03-05T03:26:53.131Z,96392.50
2023-03-05T03:31:55.983Z,96402.50
2023-03-05T03:37:00.275Z,96402.00
2023-03-05T03:42:03.105Z,96405.22
2023-03-05T03:47:06.216Z,96405.22
2023-03-05T03:52:10.693Z,96401.16
2023-03-05T03:57:13.499Z,96398.75
2023-03-05T04:02:16.380Z,96407.41
2023-03-05T04:07:20.940Z,96407.41
2023-03-05T04:12:23.833Z,96401.72
2023-03-05T04:17:26.676Z,96385.72
2023-03-05T04:22:30.802Z,96391.16
2023-03-05T04:27:34.680Z,96395.22
2023-03-05T04:32:37.542Z,96393.59
2023-03-05T04:37:42.151Z,96398.75
2023-03-05T04:42:46.214Z,96393.34
2023-03-05T04:47:49.105Z,96398.75
2023-03-05T04:52:53.314Z,96400.38
2023-03-05T04:57:56.294Z,96394.41
2023-03-05T05:02:59.209Z,96386.56
2023-03-05T05:08:03.739Z,96389.56
2023-03-05T05:13:06.656Z,96391.44
2023-03-05T05:18:09.496Z,96378.97
2023-03-05T05:23:13.750Z,96378.19
2023-03-05T05:28:16.548Z,96383.59
2023-03-05T05:33:19.428Z,96373.56
2023-03-05T05:38:23.620Z,96376.25
2023-03-05T05:43:26.439Z,96371.94
2023-03-05T05:48:30.145Z,96362.19
2023-03-05T05:53:34.682Z,96364.09
2023-03-05T05:58:37.813Z,96366.78
2023-03-05T06:03:40.686Z,96367.34
2023-03-05T06:08:45.062Z,96363.81
2023-03-05T06:13:48.328Z,96364.09
2023-03-05T06:18:51.320Z,96355.16
2023-03-05T06:23:55.472Z,96364.34
2023-03-05T06:28:59.094Z,96372.22
2023-03-05T06:34:02.345Z,96366.53
2023-03-05T06:39:06.951Z,96379.81
2023-03-05T06:44:12.059Z,96366.25
2023-03-05T06:49:15.062Z,96367.34
2023-03-05T06:54:19.755Z,96368.41
2023-03-05T06:59:22.630Z,96368.97
2023-03-05T07:04:25.425Z,96372.75
2023-03-05T07:09:30.750Z,96373.28
2023-03-05T07:14:33.583Z,96363.25
2023-03-05T07:19:36.617Z,96371.91
2023-03-05T07:24:40.762Z,96372.72
2023-03-05T07:29:43.561Z,96372.72
2023-03-05T07:34:46.446Z,96374.34
2023-03-05T07:39:50.603Z,96379.78
2023-03-05T07:44:53.406Z,96377.84
2023-03-05T07:49:56.235Z,96380.28
2023-03-05T07:55:00.394Z,96378.97
2023-03-05T08:00:03.292Z,96379.47
2023-03-05T08:05:06.999Z,96378.69
2023-03-05T08:10:12.381Z,96373.78
2023-03-05T08:15:15.219Z,96369.19
2023-03-05T08:20:19.229Z,96371.31
2023-03-05T08:25:26.407Z,96363.19
2023-03-05T08:30:29.283Z,96369.94
2023-03-05T08:35:32.282Z,96359.63
2023-03-05T08:40:37.167Z,96365.88
2023-03-05T08:45:40.264Z,96349.84
2023-03-05T08:50:43.354Z,96348.47
2023-03-05T08:55:55.011Z,96338.44
2023-03-05T09:00:57.865Z,96344.09
2023-03-05T09:06:01.898Z,96333.00
2023-03-05T09:11:08.121Z,96333.00
2023-03-05T09:16:14.283Z,96325.91
2023-03-05T09:21:18.924Z,96311.28
2023-03-05T09:26:23.092Z,96315.63
2023-03-05T09:31:26.132Z,96316.94
2023-03-05T09:36:31.076Z,96306.38
2023-03-05T09:41:48.215Z,96292.81
2023-03-05T09:46:54.723Z,96288.72
2023-03-05T09:52:06.725Z,96284.38
2023-03-05T09:57:17.333Z,96286.78
2023-03-05T10:02:24.526Z,96283.53
2023-03-05T10:07:30.191Z,96278.13
2023-03-05T10:12:42.376Z,96269.47
2023-03-05T10:18:06.646Z,96262.13
2023-03-05T10:23:24.679Z,96250.47
2023-03-05T10:28:35.997Z,96240.97
2023-03-05T10:33:44.698Z,96240.13
2023-03-05T10:38:59.962Z,96235.81
2023-03-05T10:44:10.793Z,96235.81
2023-03-05T10:49:18.999Z,96227.66
2023-03-05T10:54:26.541Z,96210.84
2023-03-05T10:59:30.794Z,96200.00
2023-03-05T11:04:36.981Z,96197.25
2023-03-05T11:09:39.892Z,96190.22
2023-03-05T11:14:45.804Z,96188.53
2023-03-05T11:19:48.586Z,96183.13
2023-03-05T11:25:18.322Z,96173.06
2023-03-05T11:30:27.100Z,96157.09
2023-03-05T11:35:32.582Z,96151.34
2023-03-05T11:40:36.763Z,96141.31
2023-03-05T11:45:42.056Z,96129.38
2023-03-05T11:50:46.614Z,96124.78
2023-03-05T11:55:51.122Z,96117.13
2023-03-05T12:00:55.443Z,96105.50
2023-03-05T12:05:59.966Z,96097.34
2023-03-05T12:11:07.303Z,96095.16
2023-03-05T12:16:15.804Z,96080.47
2023-03-05T12:21:26.881Z,96065.81
2023-03-05T12:26:56.075Z,96052.25
2023-03-05T12:32:01.682Z,96044.66
2023-03-05T12:37:05.011Z,96036.19
2023-03-05T12:42:37.625Z,96029.97
2023-03-05T12:47:42.715Z,96025.59
2023-03-05T12:52:50.076Z,96009.31
2023-03-05T12:57:55.642Z,96007.09
2023-03-05T13:03:00.359Z,95999.47
2023-03-05T13:08:16.214Z,95998.91
2023-03-05T13:13:20.656Z,95987.75
2023-03-05T13:18:27.642Z,95974.19
2023-03-05T13:23:30.680Z,95972.75
2023-03-05T13:28:33.833Z,95962.44
2023-03-05T13:33:38.007Z,95960.22
2023-03-05T13:38:45.234Z,95954.50
2023-03-05T13:43:49.825Z,95943.66
2023-03-05T13:48:54.026Z,95933.84
2023-03-05T13:53:56.937Z,95924.88
2023-03-05T13:59:01.369Z,95925.94
2023-03-05T14:04:09.035Z,95915.56
2023-03-05T14:09:20.425Z,95915.00
2023-03-05T14:14:24.612Z,95908.97
2023-03-05T14:19:37.241Z,95892.38
2023-03-05T14:24:40.135Z,95882.84
2023-03-05T14:29:46.194Z,95886.56
2023-03-05T14:34:54.125Z,95885.97
2023-03-05T14:39:58.021Z,95871.56
2023-03-05T14:45:02.166Z,95868.84
2023-03-05T14:50:07.433Z,95870.28
2023-03-05T14:55:15.436Z,95855.59
2023-03-05T15:00:19.921Z,95849.84
2023-03-05T15:05:25.019Z,95849.28
2023-03-05T15:10:27.848Z,95840.44
2023-03-05T15:15:30.783Z,95833.41
2023-03-05T15:20:35.235Z,95831.19
2023-03-05T15:25:38.171Z,95815.31
2023-03-05T15:30:43.744Z,95808.72
2023-03-05T15:35:47.920Z,95812.00
2023-03-05T15:40:51.692Z,95806.72
2023-03-05T15:45:54.556Z,95800.44
2023-03-05T15:50:58.765Z,95796.09
2023-03-05T15:56:01.567Z,95785.69
2023-03-05T16:01:04.494Z,95784.06
2023-03-05T16:06:10.367Z,95788.63
2023-03-05T16:11:13.840Z,95774.06
2023-03-05T16:16:16.861Z,95773.50
2023-03-05T16:21:21.159Z,95771.22
2023-03-05T16:26:24.009Z,95772.66
2023-03-05T16:31:30.670Z,95767.81
2023-03-05T16:36:35.629Z,95763.59
2023-03-05T16:41:38.462Z,95762.41
2023-03-05T16:46:41.983Z,95772.09
2023-03-05T16:51:46.287Z,95765.50
2023-03-05T16:56:49.075Z,95762.28
2023-03-05T17:01:52.008Z,95773.06
2023-03-05T17:06:56.656Z,95768.03
2023-03-05T17:11:59.549Z,95780.88
2023-03-05T17:17:02.418Z,95777.78
2023-03-05T17:22:07.139Z,95779.28
2023-03-05T17:27:10.822Z,95785.13
2023-03-05T17:32:13.840Z,95778.41
2023-03-05T17:37:19.183Z,95780.09
2023-03-05T17:42:22.208Z,95781.78
2023-03-05T17:47:26.349Z,95787.63
2023-03-05T17:52:31.126Z,95774.16
2023-03-05T17:57:34.024Z,95789.13
2023-03-05T18:02:36.895Z,95784.56
2023-03-05T18:07:41.076Z,95789.81
2023-03-05T18:12:43.900Z,95793.91
2023-03-05T18:17:46.837Z,95790.22
2023-03-05T18:22:50.982Z,95790.50
2023-03-05T18:27:54.098Z,95790.75
2023-03-05T18:32:57.206Z,95785.94
2023-03-05T18:38:01.839Z,95792.25
2023-03-05T18:43:04.710Z,95789.53
2023-03-05T18:48:08.115Z,95790.34
2023-03-05T18:53:13.371Z,95783.13
2023-03-05T18:58:17.469Z,95784.22
2023-03-05T19:03:22.563Z,95778.28
2023-03-05T19:08:28.325Z,95782.09
2023-03-05T19:13:40.209Z,95776.16
2023-03-05T19:19:20.368Z,95769.09
2023-03-05T19:24:25.969Z,95767.50
2023-03-05T19:29:32.994Z,95777.84
2023-03-05T19:34:36.668Z,95781.97
2023-03-05T19:39:42.730Z,95774.13
2023-03-05T19:44:45.533Z,95774.66
2023-03-05T19:49:48.353Z,95769.81
2023-03-05T19:54:52.515Z,95768.97
2023-03-05T19:59:55.371Z,95761.94
2023-03-05T20:04:58.245Z,95757.34
2023-03-05T20:10:02.486Z,95763.34
2023-03-05T20:15:06.035Z,95759.84
2023-03-05T20:20:10.422Z,95759.31
2023-03-05T20:25:17.269Z,95753.91
2023-03-05T20:30:20.390Z,95745.75
2023-03-05T20:35:23.615Z,95736.84
2023-03-05T20:40:27.917Z,95731.41
2023-03-05T20:45:30.706Z,95739.84
2023-03-05T20:50:34.070Z,95734.69
2023-03-05T20:55:38.211Z,95739.91
2023-03-05T21:00:41.620Z,95734.50
2023-03-05T21:05:44.533Z,95733.72
2023-03-05T21:10:48.822Z,95730.19
2023-03-05T21:15:51.787Z,95731.78
2023-03-05T21:20:54.813Z,95728.28
2023-03-05T21:25:59.034Z,95726.97
2023-03-05T21:31:07.826Z,95720.72
2023-03-05T21:36:10.985Z,95720.22
2023-03-05T21:41:15.579Z,95713.19
2023-03-05T21:46:18.429Z,95708.56
2023-03-05T21:51:50.617Z,95705.84
2023-03-05T21:56:54.905Z,95697.72
2023-03-05T22:01:57.842Z,95698.53
2023-03-05T22:07:00.673Z,95693.41
2023-03-05T22:12:56.593Z,95680.94
2023-03-05T22:18:00.940Z,95668.50
2023-03-05T22:23:03.923Z,95666.56
2023-03-05T22:28:06.951Z,95666.56
2023-03-05T22:33:11.161Z,95657.94
2023-03-05T22:38:14.504Z,95656.34
2023-03-05T22:43:18.443Z,95655.22
2023-03-05T22:48:22.682Z,95642.78
2023-03-05T22:53:25.530Z,95637.34
2023-03-05T22:58:28.317Z,95639.53
2023-03-05T23:03:32.511Z,95629.00
2023-03-05T23:08:35.538Z,95621.97
2023-03-05T23:13:38.948Z,95626.31
2023-03-05T23:18:43.099Z,95622.47
2023-03-05T23:23:45.957Z,95626.31
2023-03-05T23:28:49.064Z,95634.94
2023-03-05T23:33:53.289Z,95631.41
2023-03-05T23:38:57.975Z,95626.78
2023-03-05T23:44:00.846Z,95630.09
2023-03-05T23:49:05.043Z,95626.06
2023-03-05T23:54:07.853Z,95614.44
2023-03-05T23:59:10.707Z,95626.06
